createdAt,value
2023-02-17T00:03:57.654Z,5.10
2023-02-17T00:09:04.946Z,5.10
2023-02-17T00:14:15.060Z,5.20
2023-02-17T00:19:25.317Z,5.30
2023-02-17T00:24:35.768Z,5.00
2023-02-17T00:29:42.501Z,5.30
2023-02-17T00:34:49.646Z,5.10
2023-02-17T00:39:56.417Z,5.20
2023-02-17T00:45:03.161Z,5.40
2023-02-17T00:50:10.658Z,5.00
2023-02-17T00:55:17.579Z,5.20
2023-02-17T01:00:24.872Z,5.30
2023-02-17T01:05:31.861Z,5.40
2023-02-17T01:10:44.331Z,5.30
2023-02-17T01:15:54.886Z,5.50
2023-02-17T01:21:01.653Z,5.50
2023-02-17T01:26:08.467Z,5.40
2023-02-17T01:31:16.199Z,5.20
2023-02-17T01:36:23.555Z,5.10
2023-02-17T01:41:31.189Z,5.20
2023-02-17T01:46:39.735Z,5.40
2023-02-17T01:51:50.958Z,5.40
2023-02-17T01:57:00.588Z,5.30
2023-02-17T02:02:09.247Z,5.20
2023-02-17T02:07:23.549Z,5.30
2023-02-17T02:12:34.411Z,5.50
2023-02-17T02:17:49.177Z,5.50
2023-02-17T02:23:31.574Z,5.70
2023-02-17T02:29:09.591Z,5.50
2023-02-17T02:34:26.608Z,5.60
2023-02-17T02:39:37.304Z,5.60
2023-02-17T02:44:43.975Z,5.50
2023-02-17T02:49:50.745Z,5.40
2023-02-17T02:55:11.029Z,5.20
2023-02-17T03:00:55.769Z,5.30
2023-02-17T03:06:15.797Z,5.40
2023-02-17T03:11:35.038Z,5.40
2023-02-17T03:16:43.753Z,5.60
2023-02-17T03:22:03.599Z,5.40
2023-02-17T03:27:10.554Z,5.30
2023-02-17T03:32:17.272Z,5.40
2023-02-17T03:37:24.032Z,5.00
2023-02-17T03:42:30.688Z,5.10
2023-02-17T03:47:37.422Z,5.60
2023-02-17T03:52:44.544Z,5.70
2023-02-17T03:57:51.213Z,5.60
2023-02-17T04:02:58.108Z,5.10
2023-02-17T04:08:05.864Z,5.40
2023-02-17T04:13:13.225Z,5.20
2023-02-17T04:18:21.487Z,5.40
2023-02-17T04:23:29.229Z,5.70
2023-02-17T04:28:38.451Z,5.60
2023-02-17T04:33:45.425Z,5.40
2023-02-17T04:38:52.528Z,5.20
2023-02-17T04:43:59.440Z,5.60
2023-02-17T04:49:06.470Z,5.50
2023-02-17T04:54:13.482Z,5.60
2023-02-17T04:59:20.694Z,5.50
2023-02-17T05:04:27.598Z,5.60
2023-02-17T05:09:34.443Z,5.70
2023-02-17T05:14:41.452Z,5.40
2023-02-17T05:19:48.138Z,5.30
2023-02-17T05:24:55.512Z,5.30
2023-02-17T05:30:02.455Z,5.20
2023-02-17T05:35:09.935Z,5.10
2023-02-17T05:40:16.671Z,5.10
2023-02-17T05:45:24.506Z,5.00
2023-02-17T05:50:31.864Z,5.10
2023-02-17T05:55:38.593Z,5.40
2023-02-17T06:00:47.645Z,5.30
2023-02-17T06:05:54.601Z,5.40
2023-02-17T06:11:01.363Z,5.40
2023-02-17T06:16:09.029Z,5.40
2023-02-17T06:21:16.726Z,5.40
2023-02-17T06:26:23.761Z,5.30
2023-02-17T06:31:30.798Z,5.00
2023-02-17T06:36:37.521Z,5.30
2023-02-17T06:41:44.400Z,5.10
2023-02-17T06:46:51.431Z,5.50
2023-02-17T06:51:58.083Z,5.20
2023-02-17T06:57:05.120Z,5.50
2023-02-17T07:02:16.390Z,5.50
2023-02-17T07:07:23.341Z,5.70
2023-02-17T07:12:32.344Z,5.80
2023-02-17T07:17:39.355Z,5.90
2023-02-17T07:22:46.370Z,6.20
2023-02-17T07:27:53.208Z,6.50
2023-02-17T07:33:00.248Z,6.10
2023-02-17T07:38:07.387Z,6.20
2023-02-17T07:43:14.191Z,6.20
2023-02-17T07:48:21.091Z,6.20
2023-02-17T07:53:28.015Z,6.10
2023-02-17T07:58:37.845Z,6.30
2023-02-17T08:03:45.545Z,6.10
2023-02-17T08:09:12.007Z,6.30
2023-02-17T08:14:19.753Z,6.50
2023-02-17T08:19:31.690Z,6.50
2023-02-17T08:24:36.062Z,6.90
2023-02-17T08:29:43.191Z,6.90
2023-02-17T08:34:50.601Z,7.10
2023-02-17T08:39:57.391Z,7.20
2023-02-17T08:45:05.351Z,7.40
2023-02-17T08:50:16.818Z,7.90
2023-02-17T08:55:23.857Z,8.40
2023-02-17T09:00:30.780Z,8.70
2023-02-17T09:05:37.765Z,8.90
2023-02-17T09:10:44.564Z,9.00
2023-02-17T09:15:53.415Z,9.10
2023-02-17T09:21:01.504Z,9.10
2023-02-17T09:26:11.730Z,9.40
2023-02-17T09:31:25.836Z,9.10
2023-02-17T09:36:37.268Z,9.60
2023-02-17T09:41:52.700Z,9.60
2023-02-17T09:47:12.180Z,9.70
2023-02-17T09:52:39.854Z,9.90
2023-02-17T09:57:56.834Z,10.20
2023-02-17T10:03:25.519Z,10.80
2023-02-17T10:08:54.819Z,10.50
2023-02-17T10:14:21.297Z,10.90
2023-02-17T10:19:38.300Z,10.40
2023-02-17T10:24:44.852Z,10.50
2023-02-17T10:30:18.189Z,10.80
2023-02-17T10:35:41.705Z,11.10
2023-02-17T10:40:51.665Z,12.20
2023-02-17T10:46:01.601Z,12.30
2023-02-17T10:51:09.691Z,12.50
2023-02-17T10:56:38.664Z,12.20
2023-02-17T11:01:46.445Z,12.40
2023-02-17T11:06:56.462Z,12.30
2023-02-17T11:12:22.084Z,12.20
2023-02-17T11:17:40.832Z,12.30
2023-02-17T11:22:51.913Z,12.20
2023-02-17T11:28:09.002Z,12.40
2023-02-17T11:33:20.117Z,12.80
2023-02-17T11:38:43.067Z,12.60
2023-02-17T11:44:01.163Z,12.50
2023-02-17T11:49:44.020Z,12.20
2023-02-17T11:55:00.855Z,12.90
2023-02-17T12:00:29.987Z,12.60
2023-02-17T12:05:46.559Z,12.60
2023-02-17T12:11:18.957Z,12.50
2023-02-17T12:16:47.942Z,12.50
2023-02-17T12:22:02.055Z,12.00
2023-02-17T12:27:28.205Z,12.20
2023-02-17T12:32:54.240Z,12.60
2023-02-17T12:38:08.354Z,12.20
2023-02-17T12:43:43.765Z,12.70
2023-02-17T12:49:00.649Z,13.20
2023-02-17T12:54:29.495Z,13.10
2023-02-17T12:59:39.943Z,13.30
2023-02-17T13:04:50.880Z,13.20
2023-02-17T13:09:58.863Z,13.30
2023-02-17T13:15:10.269Z,13.00
2023-02-17T13:20:21.514Z,13.00
2023-02-17T13:25:37.283Z,13.00
2023-02-17T13:30:46.110Z,12.70
2023-02-17T13:35:52.827Z,12.50
2023-02-17T13:41:04.828Z,12.20
2023-02-17T13:46:16.145Z,11.70
2023-02-17T13:51:32.186Z,11.60
2023-02-17T13:56:39.600Z,11.80
2023-02-17T14:01:48.086Z,12.30
2023-02-17T14:06:59.284Z,12.00
2023-02-17T14:12:08.947Z,12.20
2023-02-17T14:17:33.683Z,12.00
2023-02-17T14:22:40.393Z,12.10
2023-02-17T14:27:53.315Z,11.90
2023-02-17T14:33:22.165Z,12.20
2023-02-17T14:38:32.798Z,12.10
2023-02-17T14:43:40.261Z,11.90
2023-02-17T14:48:48.366Z,11.40
2023-02-17T14:53:56.162Z,11.10
2023-02-17T14:59:03.436Z,11.40
2023-02-17T15:04:10.616Z,10.90
2023-02-17T15:09:22.898Z,10.70
2023-02-17T15:14:30.093Z,10.90
2023-02-17T15:19:37.266Z,10.60
2023-02-17T15:24:44.166Z,10.60
2023-02-17T15:29:51.092Z,10.30
2023-02-17T15:34:58.869Z,10.10
2023-02-17T15:40:05.975Z,10.10
2023-02-17T15:45:19.688Z,10.00
2023-02-17T15:50:26.498Z,10.00
2023-02-17T15:55:35.213Z,10.00
2023-02-17T16:00:43.363Z,9.90
2023-02-17T16:05:50.707Z,9.70
2023-02-17T16:10:57.541Z,9.50
2023-02-17T16:16:04.450Z,9.50
2023-02-17T16:21:14.636Z,9.40
2023-02-17T16:26:37.074Z,9.50
2023-02-17T16:31:43.944Z,9.40
2023-02-17T16:36:54.664Z,9.10
2023-02-17T16:42:01.688Z,8.90
2023-02-17T16:47:11.674Z,9.00
2023-02-17T16:52:25.590Z,9.00
2023-02-17T16:57:31.461Z,9.00
2023-02-17T17:02:37.803Z,9.00
2023-02-17T17:07:45.309Z,8.70
2023-02-17T17:12:52.330Z,8.70
2023-02-17T17:18:06.219Z,8.80
2023-02-17T17:23:15.873Z,8.80
2023-02-17T17:28:22.794Z,8.80
2023-02-17T17:33:29.958Z,9.10
2023-02-17T17:38:36.909Z,9.00
2023-02-17T17:43:46.279Z,9.10
2023-02-17T17:48:56.194Z,8.90
2023-02-17T17:54:03.226Z,9.30
2023-02-17T17:59:10.304Z,8.70
2023-02-17T18:04:17.114Z,8.70
2023-02-17T18:09:31.597Z,8.70
2023-02-17T18:14:39.743Z,8.70
2023-02-17T18:19:47.735Z,8.50
2023-02-17T18:24:54.639Z,8.70
2023-02-17T18:30:01.454Z,8.70
2023-02-17T18:35:08.945Z,8.70
2023-02-17T18:40:20.524Z,9.20
2023-02-17T18:45:28.174Z,9.40
2023-02-17T18:50:35.584Z,9.20
2023-02-17T18:55:42.439Z,9.50
2023-02-17T19:00:49.233Z,9.10
2023-02-17T19:05:56.118Z,9.70
2023-02-17T19:11:03.239Z,9.60
2023-02-17T19:16:14.367Z,9.80
2023-02-17T19:21:21.687Z,9.40
2023-02-17T19:26:28.306Z,9.10
2023-02-17T19:31:35.089Z,9.00
2023-02-17T19:36:41.772Z,9.10
2023-02-17T19:41:48.489Z,9.10
2023-02-17T19:46:55.115Z,9.20
2023-02-17T19:52:01.724Z,9.40
2023-02-17T19:57:08.415Z,9.50
2023-02-17T20:02:17.355Z,9.60
2023-02-17T20:07:24.066Z,9.80
2023-02-17T20:12:30.938Z,9.50
2023-02-17T20:17:39.438Z,9.90
2023-02-17T20:22:47.581Z,9.20
2023-02-17T20:27:55.100Z,9.20
2023-02-17T20:33:01.807Z,9.50
2023-02-17T20:38:09.578Z,9.20
2023-02-17T20:43:16.261Z,8.90
2023-02-17T20:48:24.727Z,8.90
2023-02-17T20:53:31.456Z,9.20
2023-02-17T20:58:39.516Z,10.10
2023-02-17T21:03:47.057Z,9.60
2023-02-17T21:08:58.175Z,9.30
2023-02-17T21:14:05.318Z,9.40
2023-02-17T21:19:12.290Z,9.40
2023-02-17T21:24:19.175Z,9.30
2023-02-17T21:29:26.497Z,9.70
2023-02-17T21:34:34.979Z,9.50
2023-02-17T21:39:42.269Z,10.10
2023-02-17T21:44:54.714Z,10.70
2023-02-17T21:50:01.971Z,10.40
2023-02-17T21:55:08.940Z,10.30
2023-02-17T22:00:17.342Z,10.00
2023-02-17T22:05:24.404Z,10.10
2023-02-17T22:10:31.353Z,10.20
2023-02-17T22:15:39.267Z,10.20
2023-02-17T22:20:46.556Z,9.90
2023-02-17T22:25:53.441Z,10.10
2023-02-17T22:31:00.783Z,10.20
2023-02-17T22:36:12.141Z,10.20
2023-02-17T22:41:22.566Z,10.00
2023-02-17T22:46:30.264Z,10.20
2023-02-17T22:51:40.630Z,10.00
2023-02-17T22:56:47.411Z,9.90
2023-02-17T23:01:54.161Z,9.80
2023-02-17T23:07:00.970Z,10.20
2023-02-17T23:12:08.382Z,10.20
2023-02-17T23:17:16.439Z,10.00
2023-02-17T23:22:23.002Z,9.80
2023-02-17T23:27:29.879Z,9.90
2023-02-17T23:32:36.971Z,9.80
2023-02-17T23:37:44.524Z,9.80
2023-02-17T23:42:51.441Z,9.60
2023-02-17T23:47:58.134Z,10.00
2023-02-17T23:53:05.650Z,10.30
2023-02-17T23:58:12.426Z,10.00
